sensor_id;sensor_type;location;lat;lon;timestamp;P1;durP1;ratioP1;P2;durP2;ratioP2
1577;SDS011;57623;53.608;10.004;2022-09-09T00:00:27;17.30;;;15.60;;
1577;SDS011;57623;53.608;10.004;2022-09-09T00:03:52;23.43;;;20.87;;
1577;SDS011;57623;53.608;10.004;2022-09-09T00:07:07;25.07;;;22.37;;
1577;SDS011;57623;53.608;10.004;2022-09-09T00:10:35;24.33;;;20.57;;
1577;SDS011;57623;53.608;10.004;2022-09-09T00:13:58;24.40;;;21.80;;
1577;SDS011;57623;53.608;10.004;2022-09-09T00:17:00;24.83;;;22.07;;
1577;SDS011;57623;53.608;10.004;2022-09-09T00:20:10;24.47;;;21.60;;
1577;SDS011;57623;53.608;10.004;2022-09-09T00:26:40;26.80;;;22.70;;
1577;SDS011;57623;53.608;10.004;2022-09-09T00:29:40;25.50;;;21.20;;
1577;SDS011;57623;53.608;10.004;2022-09-09T00:32:53;24.17;;;21.60;;
1577;SDS011;57623;53.608;10.004;2022-09-09T00:35:59;28.90;;;23.07;;
1577;SDS011;57623;53.608;10.004;2022-09-09T00:39:31;30.00;;;24.60;;
1577;SDS011;57623;53.608;10.004;2022-09-09T00:42:47;35.37;;;26.33;;
1577;SDS011;57623;53.608;10.004;2022-09-09T00:53:12;39.17;;;28.10;;
1577;SDS011;57623;53.608;10.004;2022-09-09T00:59:47;35.37;;;27.10;;
1577;SDS011;57623;53.608;10.004;2022-09-09T01:03:03;39.50;;;27.90;;
1577;SDS011;57623;53.608;10.004;2022-09-09T01:06:28;41.20;;;30.67;;
1577;SDS011;57623;53.608;10.004;2022-09-09T01:10:14;40.70;;;28.40;;
1577;SDS011;57623;53.608;10.004;2022-09-09T01:13:45;40.00;;;28.90;;
1577;SDS011;57623;53.608;10.004;2022-09-09T01:17:14;38.07;;;27.53;;
1577;SDS011;57623;53.608;10.004;2022-09-09T01:20:36;36.10;;;27.23;;
1577;SDS011;57623;53.608;10.004;2022-09-09T01:23:44;34.77;;;26.00;;
1577;SDS011;57623;53.608;10.004;2022-09-09T01:27:08;36.90;;;26.17;;
1577;SDS011;57623;53.608;10.004;2022-09-09T01:33:22;33.87;;;25.80;;
1577;SDS011;57623;53.608;10.004;2022-09-09T01:36:25;34.83;;;27.00;;
1577;SDS011;57623;53.608;10.004;2022-09-09T01:39:57;36.23;;;26.40;;
1577;SDS011;57623;53.608;10.004;2022-09-09T01:43:05;37.57;;;26.00;;
1577;SDS011;57623;53.608;10.004;2022-09-09T01:46:16;31.47;;;24.90;;
1577;SDS011;57623;53.608;10.004;2022-09-09T01:49:17;32.80;;;26.30;;
1577;SDS011;57623;53.608;10.004;2022-09-09T01:52:38;30.67;;;25.50;;
1577;SDS011;57623;53.608;10.004;2022-09-09T01:56:02;31.70;;;25.63;;
1577;SDS011;57623;53.608;10.004;2022-09-09T02:03:04;33.60;;;26.20;;
1577;SDS011;57623;53.608;10.004;2022-09-09T02:06:27;31.17;;;23.60;;
1577;SDS011;57623;53.608;10.004;2022-09-09T02:09:30;30.73;;;24.90;;
1577;SDS011;57623;53.608;10.004;2022-09-09T02:12:29;31.90;;;22.70;;
1577;SDS011;57623;53.608;10.004;2022-09-09T02:15:53;29.53;;;23.57;;
1577;SDS011;57623;53.608;10.004;2022-09-09T02:19:06;29.27;;;23.40;;
1577;SDS011;57623;53.608;10.004;2022-09-09T02:22:10;31.53;;;24.40;;
1577;SDS011;57623;53.608;10.004;2022-09-09T02:25:24;27.63;;;22.20;;
1577;SDS011;57623;53.608;10.004;2022-09-09T02:28:28;28.30;;;22.60;;
1577;SDS011;57623;53.608;10.004;2022-09-09T02:31:37;27.57;;;22.00;;
1577;SDS011;57623;53.608;10.004;2022-09-09T02:34:50;27.00;;;21.87;;
1577;SDS011;57623;53.608;10.004;2022-09-09T02:38:05;26.80;;;23.07;;
1577;SDS011;57623;53.608;10.004;2022-09-09T02:41:05;28.80;;;23.00;;
1577;SDS011;57623;53.608;10.004;2022-09-09T02:44:05;25.60;;;21.77;;
1577;SDS011;57623;53.608;10.004;2022-09-09T02:50:33;23.20;;;20.40;;
1577;SDS011;57623;53.608;10.004;2022-09-09T02:53:56;24.13;;;21.20;;
1577;SDS011;57623;53.608;10.004;2022-09-09T02:57:19;26.00;;;21.17;;
1577;SDS011;57623;53.608;10.004;2022-09-09T03:00:30;26.67;;;21.33;;
1577;SDS011;57623;53.608;10.004;2022-09-09T03:03:45;24.60;;;21.90;;
1577;SDS011;57623;53.608;10.004;2022-09-09T03:06:56;26.07;;;21.87;;
1577;SDS011;57623;53.608;10.004;2022-09-09T03:10:18;26.50;;;21.00;;
1577;SDS011;57623;53.608;10.004;2022-09-09T03:13:28;25.30;;;20.73;;
1577;SDS011;57623;53.608;10.004;2022-09-09T03:16:55;24.90;;;20.00;;
1577;SDS011;57623;53.608;10.004;2022-09-09T03:23:53;23.60;;;19.63;;
1577;SDS011;57623;53.608;10.004;2022-09-09T03:27:10;21.63;;;18.73;;
1577;SDS011;57623;53.608;10.004;2022-09-09T03:30:29;22.80;;;19.00;;
1577;SDS011;57623;53.608;10.004;2022-09-09T03:33:28;23.03;;;20.33;;
1577;SDS011;57623;53.608;10.004;2022-09-09T03:36:34;21.57;;;18.87;;
1577;SDS011;57623;53.608;10.004;2022-09-09T03:40:06;24.63;;;19.57;;
1577;SDS011;57623;53.608;10.004;2022-09-09T03:43:12;24.83;;;20.80;;
1577;SDS011;57623;53.608;10.004;2022-09-09T03:46:31;25.43;;;20.33;;
1577;SDS011;57623;53.608;10.004;2022-09-09T03:49:31;26.60;;;21.33;;
1577;SDS011;57623;53.608;10.004;2022-09-09T03:52:45;23.83;;;21.23;;
1577;SDS011;57623;53.608;10.004;2022-09-09T03:55:51;23.97;;;19.77;;
1577;SDS011;57623;53.608;10.004;2022-09-09T03:58:56;22.10;;;19.13;;
1577;SDS011;57623;53.608;10.004;2022-09-09T04:02:16;26.73;;;21.30;;
1577;SDS011;57623;53.608;10.004;2022-09-09T04:05:34;27.47;;;21.23;;
1577;SDS011;57623;53.608;10.004;2022-09-09T04:08:36;24.43;;;20.43;;
1577;SDS011;57623;53.608;10.004;2022-09-09T04:11:55;26.53;;;20.83;;
1577;SDS011;57623;53.608;10.004;2022-09-09T04:15:12;24.70;;;21.00;;
1577;SDS011;57623;53.608;10.004;2022-09-09T04:18:39;23.80;;;20.77;;
1577;SDS011;57623;53.608;10.004;2022-09-09T04:21:44;25.33;;;20.03;;
1577;SDS011;57623;53.608;10.004;2022-09-09T04:25:15;21.77;;;18.67;;
1577;SDS011;57623;53.608;10.004;2022-09-09T04:28:20;23.80;;;19.17;;
1577;SDS011;57623;53.608;10.004;2022-09-09T04:35:16;23.00;;;17.20;;
1577;SDS011;57623;53.608;10.004;2022-09-09T04:38:24;21.53;;;18.70;;
1577;SDS011;57623;53.608;10.004;2022-09-09T04:41:22;19.23;;;16.97;;
1577;SDS011;57623;53.608;10.004;2022-09-09T04:44:26;22.80;;;19.03;;
1577;SDS011;57623;53.608;10.004;2022-09-09T04:47:43;20.57;;;17.80;;
1577;SDS011;57623;53.608;10.004;2022-09-09T04:50:52;20.47;;;17.97;;
1577;SDS011;57623;53.608;10.004;2022-09-09T04:53:46;21.30;;;18.70;;
1577;SDS011;57623;53.608;10.004;2022-09-09T04:56:42;19.90;;;17.00;;
1577;SDS011;57623;53.608;10.004;2022-09-09T04:59:36;19.47;;;16.80;;
1577;SDS011;57623;53.608;10.004;2022-09-09T05:02:42;21.67;;;17.50;;
1577;SDS011;57623;53.608;10.004;2022-09-09T05:05:38;17.80;;;16.00;;
1577;SDS011;57623;53.608;10.004;2022-09-09T05:08:44;17.23;;;15.33;;
1577;SDS011;57623;53.608;10.004;2022-09-09T05:18:21;15.80;;;14.30;;
1577;SDS011;57623;53.608;10.004;2022-09-09T05:21:44;14.83;;;13.33;;
1577;SDS011;57623;53.608;10.004;2022-09-09T05:24:58;14.27;;;12.93;;
1577;SDS011;57623;53.608;10.004;2022-09-09T05:27:48;14.53;;;13.10;;
1577;SDS011;57623;53.608;10.004;2022-09-09T05:30:44;14.27;;;12.80;;
1577;SDS011;57623;53.608;10.004;2022-09-09T05:33:32;15.10;;;13.60;;
1577;SDS011;57623;53.608;10.004;2022-09-09T05:36:27;13.97;;;12.67;;
1577;SDS011;57623;53.608;10.004;2022-09-09T05:39:21;13.97;;;12.63;;
1577;SDS011;57623;53.608;10.004;2022-09-09T05:42:09;13.80;;;12.37;;
1577;SDS011;57623;53.608;10.004;2022-09-09T05:45:06;13.30;;;12.10;;
1577;SDS011;57623;53.608;10.004;2022-09-09T05:48:02;13.03;;;11.83;;
1577;SDS011;57623;53.608;10.004;2022-09-09T05:50:53;14.20;;;12.80;;
1577;SDS011;57623;53.608;10.004;2022-09-09T05:53:46;13.43;;;12.23;;
1577;SDS011;57623;53.608;10.004;2022-09-09T05:56:37;13.30;;;12.00;;
1577;SDS011;57623;53.608;10.004;2022-09-09T05:59:32;13.43;;;12.13;;
1577;SDS011;57623;53.608;10.004;2022-09-09T06:02:31;12.27;;;11.07;;
1577;SDS011;57623;53.608;10.004;2022-09-09T06:05:21;14.50;;;13.17;;
1577;SDS011;57623;53.608;10.004;2022-09-09T06:08:13;12.73;;;11.43;;
1577;SDS011;57623;53.608;10.004;2022-09-09T06:11:03;13.07;;;11.77;;
1577;SDS011;57623;53.608;10.004;2022-09-09T06:13:53;13.00;;;11.80;;
1577;SDS011;57623;53.608;10.004;2022-09-09T06:16:41;12.70;;;11.50;;
1577;SDS011;57623;53.608;10.004;2022-09-09T06:19:30;11.63;;;10.53;;
1577;SDS011;57623;53.608;10.004;2022-09-09T06:22:22;11.17;;;10.07;;
1577;SDS011;57623;53.608;10.004;2022-09-09T06:25:10;11.03;;;10.03;;
1577;SDS011;57623;53.608;10.004;2022-09-09T06:27:58;11.50;;;10.50;;
1577;SDS011;57623;53.608;10.004;2022-09-09T06:30:47;11.23;;;10.23;;
1577;SDS011;57623;53.608;10.004;2022-09-09T06:33:35;10.53;;;9.60;;
1577;SDS011;57623;53.608;10.004;2022-09-09T06:36:27;11.20;;;10.20;;
1577;SDS011;57623;53.608;10.004;2022-09-09T06:39:18;10.17;;;9.27;;
1577;SDS011;57623;53.608;10.004;2022-09-09T06:42:08;10.47;;;9.50;;
1577;SDS011;57623;53.608;10.004;2022-09-09T06:44:56;9.90;;;9.10;;
1577;SDS011;57623;53.608;10.004;2022-09-09T06:47:45;9.60;;;8.70;;
1577;SDS011;57623;53.608;10.004;2022-09-09T06:50:33;9.07;;;8.17;;
1577;SDS011;57623;53.608;10.004;2022-09-09T06:53:22;9.80;;;8.90;;
1577;SDS011;57623;53.608;10.004;2022-09-09T06:59:18;12.03;;;10.60;;
1577;SDS011;57623;53.608;10.004;2022-09-09T07:02:08;10.37;;;9.37;;
1577;SDS011;57623;53.608;10.004;2022-09-09T07:04:58;10.30;;;9.40;;
1577;SDS011;57623;53.608;10.004;2022-09-09T07:07:49;11.50;;;9.90;;
1577;SDS011;57623;53.608;10.004;2022-09-09T07:10:40;12.20;;;9.53;;
1577;SDS011;57623;53.608;10.004;2022-09-09T07:13:32;10.03;;;9.03;;
1577;SDS011;57623;53.608;10.004;2022-09-09T07:16:22;12.87;;;11.57;;
1577;SDS011;57623;53.608;10.004;2022-09-09T07:19:11;14.13;;;10.97;;
1577;SDS011;57623;53.608;10.004;2022-09-09T07:22:00;19.20;;;15.50;;
1577;SDS011;57623;53.608;10.004;2022-09-09T07:24:49;16.43;;;12.70;;
1577;SDS011;57623;53.608;10.004;2022-09-09T07:27:38;11.70;;;10.50;;
1577;SDS011;57623;53.608;10.004;2022-09-09T07:30:29;10.40;;;9.33;;
1577;SDS011;57623;53.608;10.004;2022-09-09T07:33:17;10.13;;;9.23;;
1577;SDS011;57623;53.608;10.004;2022-09-09T07:36:09;9.00;;;8.10;;
1577;SDS011;57623;53.608;10.004;2022-09-09T07:39:01;9.17;;;8.27;;
1577;SDS011;57623;53.608;10.004;2022-09-09T07:41:51;10.07;;;8.67;;
1577;SDS011;57623;53.608;10.004;2022-09-09T07:44:40;8.37;;;7.67;;
1577;SDS011;57623;53.608;10.004;2022-09-09T07:47:30;8.77;;;7.80;;
1577;SDS011;57623;53.608;10.004;2022-09-09T07:50:18;9.13;;;7.63;;
1577;SDS011;57623;53.608;10.004;2022-09-09T07:53:06;7.60;;;6.87;;
1577;SDS011;57623;53.608;10.004;2022-09-09T07:55:54;8.17;;;7.37;;
1577;SDS011;57623;53.608;10.004;2022-09-09T07:58:44;8.23;;;7.23;;
1577;SDS011;57623;53.608;10.004;2022-09-09T08:01:34;7.97;;;7.27;;
1577;SDS011;57623;53.608;10.004;2022-09-09T08:04:27;7.83;;;7.13;;
1577;SDS011;57623;53.608;10.004;2022-09-09T08:07:24;8.47;;;7.50;;
1577;SDS011;57623;53.608;10.004;2022-09-09T08:10:12;7.97;;;7.27;;
1577;SDS011;57623;53.608;10.004;2022-09-09T08:13:02;7.67;;;7.07;;
1577;SDS011;57623;53.608;10.004;2022-09-09T08:16:05;10.03;;;6.73;;
1577;SDS011;57623;53.608;10.004;2022-09-09T08:18:54;7.67;;;6.20;;
1577;SDS011;57623;53.608;10.004;2022-09-09T08:21:45;7.00;;;6.30;;
1577;SDS011;57623;53.608;10.004;2022-09-09T08:24:35;6.87;;;6.27;;
1577;SDS011;57623;53.608;10.004;2022-09-09T08:27:23;11.33;;;7.20;;
1577;SDS011;57623;53.608;10.004;2022-09-09T08:30:14;6.87;;;6.27;;
1577;SDS011;57623;53.608;10.004;2022-09-09T08:33:03;6.63;;;6.03;;
1577;SDS011;57623;53.608;10.004;2022-09-09T08:35:51;6.60;;;6.00;;
1577;SDS011;57623;53.608;10.004;2022-09-09T08:38:41;7.23;;;6.27;;
1577;SDS011;57623;53.608;10.004;2022-09-09T08:41:37;6.33;;;5.80;;
1577;SDS011;57623;53.608;10.004;2022-09-09T08:44:40;6.27;;;5.23;;
1577;SDS011;57623;53.608;10.004;2022-09-09T08:47:51;6.53;;;5.93;;
1577;SDS011;57623;53.608;10.004;2022-09-09T08:50:51;6.20;;;5.60;;
1577;SDS011;57623;53.608;10.004;2022-09-09T08:53:43;7.40;;;5.90;;
1577;SDS011;57623;53.608;10.004;2022-09-09T08:56:34;6.07;;;5.40;;
1577;SDS011;57623;53.608;10.004;2022-09-09T08:59:23;6.20;;;5.63;;
1577;SDS011;57623;53.608;10.004;2022-09-09T09:02:14;7.10;;;6.40;;
1577;SDS011;57623;53.608;10.004;2022-09-09T09:05:07;7.40;;;6.80;;
1577;SDS011;57623;53.608;10.004;2022-09-09T09:08:06;6.07;;;5.57;;
1577;SDS011;57623;53.608;10.004;2022-09-09T09:11:03;7.53;;;6.50;;
1577;SDS011;57623;53.608;10.004;2022-09-09T09:13:54;6.23;;;5.47;;
1577;SDS011;57623;53.608;10.004;2022-09-09T09:16:48;6.60;;;6.00;;
1577;SDS011;57623;53.608;10.004;2022-09-09T09:19:40;6.13;;;5.53;;
1577;SDS011;57623;53.608;10.004;2022-09-09T09:22:30;5.70;;;5.20;;
1577;SDS011;57623;53.608;10.004;2022-09-09T09:25:27;5.83;;;4.60;;
1577;SDS011;57623;53.608;10.004;2022-09-09T09:28:22;4.70;;;4.30;;
1577;SDS011;57623;53.608;10.004;2022-09-09T09:31:12;5.20;;;4.53;;
1577;SDS011;57623;53.608;10.004;2022-09-09T09:34:01;4.60;;;4.20;;
1577;SDS011;57623;53.608;10.004;2022-09-09T09:36:52;4.50;;;4.10;;
1577;SDS011;57623;53.608;10.004;2022-09-09T09:39:42;3.40;;;3.10;;
1577;SDS011;57623;53.608;10.004;2022-09-09T09:42:51;3.63;;;3.33;;
1577;SDS011;57623;53.608;10.004;2022-09-09T09:45:43;5.47;;;3.47;;
1577;SDS011;57623;53.608;10.004;2022-09-09T09:48:58;3.73;;;3.43;;
1577;SDS011;57623;53.608;10.004;2022-09-09T09:51:47;4.23;;;3.30;;
1577;SDS011;57623;53.608;10.004;2022-09-09T09:54:37;4.33;;;3.90;;
1577;SDS011;57623;53.608;10.004;2022-09-09T09:57:30;5.23;;;4.00;;
1577;SDS011;57623;53.608;10.004;2022-09-09T10:00:20;5.50;;;3.40;;
1577;SDS011;57623;53.608;10.004;2022-09-09T10:03:14;4.07;;;3.33;;
1577;SDS011;57623;53.608;10.004;2022-09-09T10:06:09;3.83;;;3.53;;
1577;SDS011;57623;53.608;10.004;2022-09-09T10:08:57;3.40;;;3.20;;
1577;SDS011;57623;53.608;10.004;2022-09-09T10:11:46;3.47;;;2.33;;
1577;SDS011;57623;53.608;10.004;2022-09-09T10:14:45;3.03;;;2.30;;
1577;SDS011;57623;53.608;10.004;2022-09-09T10:17:40;2.77;;;2.57;;
1577;SDS011;57623;53.608;10.004;2022-09-09T10:20:43;5.93;;;2.80;;
1577;SDS011;57623;53.608;10.004;2022-09-09T10:23:44;3.53;;;2.50;;
1577;SDS011;57623;53.608;10.004;2022-09-09T10:26:47;3.20;;;2.90;;
1577;SDS011;57623;53.608;10.004;2022-09-09T10:30:00;3.10;;;2.50;;
1577;SDS011;57623;53.608;10.004;2022-09-09T10:32:56;2.40;;;2.20;;
1577;SDS011;57623;53.608;10.004;2022-09-09T10:35:56;2.30;;;2.10;;
1577;SDS011;57623;53.608;10.004;2022-09-09T10:38:52;3.07;;;2.43;;
1577;SDS011;57623;53.608;10.004;2022-09-09T10:41:50;2.50;;;2.30;;
1577;SDS011;57623;53.608;10.004;2022-09-09T10:44:52;5.53;;;2.70;;
1577;SDS011;57623;53.608;10.004;2022-09-09T10:47:58;3.20;;;2.20;;
1577;SDS011;57623;53.608;10.004;2022-09-09T10:50:59;2.90;;;2.07;;
1577;SDS011;57623;53.608;10.004;2022-09-09T10:54:02;2.40;;;2.20;;
1577;SDS011;57623;53.608;10.004;2022-09-09T10:57:02;2.43;;;1.93;;
1577;SDS011;57623;53.608;10.004;2022-09-09T10:59:56;1.77;;;1.67;;
1577;SDS011;57623;53.608;10.004;2022-09-09T11:02:52;2.27;;;1.93;;
1577;SDS011;57623;53.608;10.004;2022-09-09T11:05:43;2.53;;;1.77;;
1577;SDS011;57623;53.608;10.004;2022-09-09T11:08:38;1.90;;;1.67;;
1577;SDS011;57623;53.608;10.004;2022-09-09T11:11:29;1.70;;;1.60;;
1577;SDS011;57623;53.608;10.004;2022-09-09T11:14:22;1.83;;;1.50;;
1577;SDS011;57623;53.608;10.004;2022-09-09T11:17:23;1.80;;;1.70;;
1577;SDS011;57623;53.608;10.004;2022-09-09T11:20:14;1.73;;;1.60;;
1577;SDS011;57623;53.608;10.004;2022-09-09T11:23:04;1.70;;;1.33;;
1577;SDS011;57623;53.608;10.004;2022-09-09T11:25:59;2.50;;;1.50;;
1577;SDS011;57623;53.608;10.004;2022-09-09T11:28:54;1.93;;;1.80;;
1577;SDS011;57623;53.608;10.004;2022-09-09T11:31:58;3.10;;;1.70;;
1577;SDS011;57623;53.608;10.004;2022-09-09T11:34:56;2.20;;;1.90;;
1577;SDS011;57623;53.608;10.004;2022-09-09T11:38:13;3.03;;;2.00;;
1577;SDS011;57623;53.608;10.004;2022-09-09T11:41:07;3.53;;;2.37;;
1577;SDS011;57623;53.608;10.004;2022-09-09T11:43:56;3.67;;;2.23;;
1577;SDS011;57623;53.608;10.004;2022-09-09T11:46:45;2.83;;;1.87;;
1577;SDS011;57623;53.608;10.004;2022-09-09T11:49:39;2.50;;;2.27;;
1577;SDS011;57623;53.608;10.004;2022-09-09T11:52:35;3.00;;;2.00;;
1577;SDS011;57623;53.608;10.004;2022-09-09T11:55:25;1.93;;;1.83;;
1577;SDS011;57623;53.608;10.004;2022-09-09T11:58:17;3.63;;;2.13;;
1577;SDS011;57623;53.608;10.004;2022-09-09T12:01:13;2.50;;;2.30;;
1577;SDS011;57623;53.608;10.004;2022-09-09T12:04:26;2.10;;;1.83;;
1577;SDS011;57623;53.608;10.004;2022-09-09T12:07:30;2.43;;;2.03;;
1577;SDS011;57623;53.608;10.004;2022-09-09T12:10:23;2.27;;;2.07;;
1577;SDS011;57623;53.608;10.004;2022-09-09T12:13:16;5.50;;;2.97;;
1577;SDS011;57623;53.608;10.004;2022-09-09T12:16:06;2.80;;;2.60;;
1577;SDS011;57623;53.608;10.004;2022-09-09T12:19:16;3.40;;;2.37;;
1577;SDS011;57623;53.608;10.004;2022-09-09T12:22:16;2.67;;;2.47;;
1577;SDS011;57623;53.608;10.004;2022-09-09T12:25:16;3.77;;;2.60;;
1577;SDS011;57623;53.608;10.004;2022-09-09T12:28:14;7.40;;;2.30;;
1577;SDS011;57623;53.608;10.004;2022-09-09T12:31:12;2.43;;;2.23;;
1577;SDS011;57623;53.608;10.004;2022-09-09T12:34:13;3.03;;;2.70;;
1577;SDS011;57623;53.608;10.004;2022-09-09T12:37:05;3.27;;;2.03;;
1577;SDS011;57623;53.608;10.004;2022-09-09T12:40:01;1.87;;;1.77;;
1577;SDS011;57623;53.608;10.004;2022-09-09T12:42:51;2.93;;;2.50;;
1577;SDS011;57623;53.608;10.004;2022-09-09T12:45:41;2.50;;;2.13;;
1577;SDS011;57623;53.608;10.004;2022-09-09T12:48:33;2.93;;;2.57;;
1577;SDS011;57623;53.608;10.004;2022-09-09T12:51:24;2.70;;;2.50;;
1577;SDS011;57623;53.608;10.004;2022-09-09T12:54:15;3.20;;;2.60;;
1577;SDS011;57623;53.608;10.004;2022-09-09T12:57:04;3.30;;;3.00;;
1577;SDS011;57623;53.608;10.004;2022-09-09T13:00:03;3.70;;;2.20;;
1577;SDS011;57623;53.608;10.004;2022-09-09T13:02:56;2.83;;;2.63;;
1577;SDS011;57623;53.608;10.004;2022-09-09T13:05:47;2.93;;;2.70;;
1577;SDS011;57623;53.608;10.004;2022-09-09T13:08:36;2.80;;;2.60;;
1577;SDS011;57623;53.608;10.004;2022-09-09T13:11:26;3.50;;;3.00;;
1577;SDS011;57623;53.608;10.004;2022-09-09T13:14:18;6.77;;;2.70;;
1577;SDS011;57623;53.608;10.004;2022-09-09T13:17:17;4.60;;;3.07;;
1577;SDS011;57623;53.608;10.004;2022-09-09T13:20:15;4.80;;;3.10;;
1577;SDS011;57623;53.608;10.004;2022-09-09T13:23:04;4.33;;;3.40;;
1577;SDS011;57623;53.608;10.004;2022-09-09T13:25:53;3.40;;;3.10;;
1577;SDS011;57623;53.608;10.004;2022-09-09T13:28:43;4.07;;;3.60;;
1577;SDS011;57623;53.608;10.004;2022-09-09T13:31:33;3.60;;;3.40;;
1577;SDS011;57623;53.608;10.004;2022-09-09T13:34:26;3.90;;;3.60;;
1577;SDS011;57623;53.608;10.004;2022-09-09T13:37:19;4.33;;;3.70;;
1577;SDS011;57623;53.608;10.004;2022-09-09T13:40:14;5.13;;;4.40;;
1577;SDS011;57623;53.608;10.004;2022-09-09T13:43:10;4.40;;;4.10;;
1577;SDS011;57623;53.608;10.004;2022-09-09T13:46:06;5.23;;;4.70;;
1577;SDS011;57623;53.608;10.004;2022-09-09T13:49:19;6.00;;;4.23;;
1577;SDS011;57623;53.608;10.004;2022-09-09T13:52:09;4.67;;;4.27;;
1577;SDS011;57623;53.608;10.004;2022-09-09T13:55:00;7.30;;;4.90;;
1577;SDS011;57623;53.608;10.004;2022-09-09T13:57:55;6.60;;;4.67;;
1577;SDS011;57623;53.608;10.004;2022-09-09T14:00:47;4.67;;;4.27;;
1577;SDS011;57623;53.608;10.004;2022-09-09T14:03:36;5.33;;;4.37;;
1577;SDS011;57623;53.608;10.004;2022-09-09T14:06:25;4.83;;;4.40;;
1577;SDS011;57623;53.608;10.004;2022-09-09T14:09:16;4.60;;;4.20;;
1577;SDS011;57623;53.608;10.004;2022-09-09T14:12:09;4.93;;;4.47;;
1577;SDS011;57623;53.608;10.004;2022-09-09T14:14:59;4.80;;;4.03;;
1577;SDS011;57623;53.608;10.004;2022-09-09T14:17:47;5.03;;;4.63;;
1577;SDS011;57623;53.608;10.004;2022-09-09T14:20:36;5.67;;;5.10;;
1577;SDS011;57623;53.608;10.004;2022-09-09T14:23:24;5.37;;;4.30;;
1577;SDS011;57623;53.608;10.004;2022-09-09T14:26:13;5.63;;;5.23;;
1577;SDS011;57623;53.608;10.004;2022-09-09T14:29:02;6.00;;;5.47;;
1577;SDS011;57623;53.608;10.004;2022-09-09T14:31:50;5.60;;;5.17;;
1577;SDS011;57623;53.608;10.004;2022-09-09T14:34:39;4.50;;;4.10;;
1577;SDS011;57623;53.608;10.004;2022-09-09T14:37:29;5.70;;;4.67;;
1577;SDS011;57623;53.608;10.004;2022-09-09T14:40:17;4.80;;;4.40;;
1577;SDS011;57623;53.608;10.004;2022-09-09T14:43:05;4.93;;;4.53;;
1577;SDS011;57623;53.608;10.004;2022-09-09T14:45:55;5.13;;;4.47;;
1577;SDS011;57623;53.608;10.004;2022-09-09T14:48:48;4.90;;;4.50;;
1577;SDS011;57623;53.608;10.004;2022-09-09T14:51:36;3.40;;;3.10;;
1577;SDS011;57623;53.608;10.004;2022-09-09T14:54:25;3.47;;;3.20;;
1577;SDS011;57623;53.608;10.004;2022-09-09T14:57:13;4.10;;;3.80;;
1577;SDS011;57623;53.608;10.004;2022-09-09T15:00:01;4.77;;;4.37;;
1577;SDS011;57623;53.608;10.004;2022-09-09T15:02:54;4.47;;;3.87;;
1577;SDS011;57623;53.608;10.004;2022-09-09T15:05:43;4.40;;;4.03;;
1577;SDS011;57623;53.608;10.004;2022-09-09T15:08:31;4.67;;;4.17;;
1577;SDS011;57623;53.608;10.004;2022-09-09T15:11:20;4.50;;;4.10;;
1577;SDS011;57623;53.608;10.004;2022-09-09T15:14:10;3.80;;;3.50;;
1577;SDS011;57623;53.608;10.004;2022-09-09T15:17:01;4.80;;;4.27;;
1577;SDS011;57623;53.608;10.004;2022-09-09T15:20:01;4.17;;;3.77;;
1577;SDS011;57623;53.608;10.004;2022-09-09T15:22:50;4.20;;;3.80;;
1577;SDS011;57623;53.608;10.004;2022-09-09T15:25:49;4.17;;;3.70;;
1577;SDS011;57623;53.608;10.004;2022-09-09T15:28:38;4.90;;;4.40;;
1577;SDS011;57623;53.608;10.004;2022-09-09T15:31:30;5.30;;;4.70;;
1577;SDS011;57623;53.608;10.004;2022-09-09T15:34:19;5.33;;;4.17;;
1577;SDS011;57623;53.608;10.004;2022-09-09T15:37:10;4.57;;;4.17;;
1577;SDS011;57623;53.608;10.004;2022-09-09T15:40:00;3.70;;;3.40;;
1577;SDS011;57623;53.608;10.004;2022-09-09T15:42:48;3.90;;;3.60;;
1577;SDS011;57623;53.608;10.004;2022-09-09T15:45:36;3.70;;;3.40;;
1577;SDS011;57623;53.608;10.004;2022-09-09T15:48:27;3.20;;;2.90;;
1577;SDS011;57623;53.608;10.004;2022-09-09T15:51:18;4.17;;;3.80;;
1577;SDS011;57623;53.608;10.004;2022-09-09T15:54:28;4.47;;;4.07;;
1577;SDS011;57623;53.608;10.004;2022-09-09T15:57:19;3.53;;;3.23;;
1577;SDS011;57623;53.608;10.004;2022-09-09T16:00:08;2.80;;;2.60;;
1577;SDS011;57623;53.608;10.004;2022-09-09T16:02:59;3.17;;;2.90;;
1577;SDS011;57623;53.608;10.004;2022-09-09T16:05:50;2.87;;;2.63;;
1577;SDS011;57623;53.608;10.004;2022-09-09T16:08:41;3.83;;;2.80;;
1577;SDS011;57623;53.608;10.004;2022-09-09T16:11:32;3.87;;;3.20;;
1577;SDS011;57623;53.608;10.004;2022-09-09T16:14:22;3.20;;;3.00;;
1577;SDS011;57623;53.608;10.004;2022-09-09T16:17:11;2.87;;;2.67;;
1577;SDS011;57623;53.608;10.004;2022-09-09T16:20:01;3.00;;;2.70;;
1577;SDS011;57623;53.608;10.004;2022-09-09T16:22:49;2.80;;;2.60;;
1577;SDS011;57623;53.608;10.004;2022-09-09T16:25:38;3.03;;;2.80;;
1577;SDS011;57623;53.608;10.004;2022-09-09T16:28:27;3.63;;;3.30;;
1577;SDS011;57623;53.608;10.004;2022-09-09T16:31:18;3.03;;;2.73;;
1577;SDS011;57623;53.608;10.004;2022-09-09T16:34:08;4.03;;;3.00;;
1577;SDS011;57623;53.608;10.004;2022-09-09T16:36:56;3.03;;;2.60;;
1577;SDS011;57623;53.608;10.004;2022-09-09T16:39:45;4.93;;;2.93;;
1577;SDS011;57623;53.608;10.004;2022-09-09T16:42:33;3.40;;;3.10;;
1577;SDS011;57623;53.608;10.004;2022-09-09T16:45:26;3.20;;;2.80;;
1577;SDS011;57623;53.608;10.004;2022-09-09T16:48:15;3.33;;;2.80;;
1577;SDS011;57623;53.608;10.004;2022-09-09T16:51:04;3.37;;;2.77;;
1577;SDS011;57623;53.608;10.004;2022-09-09T16:53:57;3.10;;;2.90;;
1577;SDS011;57623;53.608;10.004;2022-09-09T16:56:47;3.53;;;3.23;;
1577;SDS011;57623;53.608;10.004;2022-09-09T16:59:40;3.47;;;3.10;;
1577;SDS011;57623;53.608;10.004;2022-09-09T17:02:29;3.70;;;2.80;;
1577;SDS011;57623;53.608;10.004;2022-09-09T17:05:18;4.30;;;2.50;;
1577;SDS011;57623;53.608;10.004;2022-09-09T17:08:09;3.70;;;2.60;;
1577;SDS011;57623;53.608;10.004;2022-09-09T17:11:01;2.60;;;2.40;;
1577;SDS011;57623;53.608;10.004;2022-09-09T17:13:50;2.60;;;2.40;;
1577;SDS011;57623;53.608;10.004;2022-09-09T17:16:41;3.13;;;2.70;;
1577;SDS011;57623;53.608;10.004;2022-09-09T17:19:31;2.70;;;2.50;;
1577;SDS011;57623;53.608;10.004;2022-09-09T17:22:22;2.93;;;2.63;;
1577;SDS011;57623;53.608;10.004;2022-09-09T17:25:13;3.23;;;2.90;;
1577;SDS011;57623;53.608;10.004;2022-09-09T17:28:03;3.20;;;2.90;;
1577;SDS011;57623;53.608;10.004;2022-09-09T17:30:57;3.13;;;2.93;;
1577;SDS011;57623;53.608;10.004;2022-09-09T17:33:47;2.63;;;2.43;;
1577;SDS011;57623;53.608;10.004;2022-09-09T17:36:42;3.20;;;2.77;;
1577;SDS011;57623;53.608;10.004;2022-09-09T17:39:30;3.17;;;2.87;;
1577;SDS011;57623;53.608;10.004;2022-09-09T17:42:19;2.73;;;2.53;;
1577;SDS011;57623;53.608;10.004;2022-09-09T17:45:08;2.90;;;2.70;;
1577;SDS011;57623;53.608;10.004;2022-09-09T17:47:57;3.07;;;2.77;;
1577;SDS011;57623;53.608;10.004;2022-09-09T17:50:46;3.07;;;2.87;;
1577;SDS011;57623;53.608;10.004;2022-09-09T17:53:37;5.97;;;3.00;;
1577;SDS011;57623;53.608;10.004;2022-09-09T17:56:27;3.30;;;3.00;;
1577;SDS011;57623;53.608;10.004;2022-09-09T17:59:20;3.27;;;3.07;;
1577;SDS011;57623;53.608;10.004;2022-09-09T18:02:11;3.10;;;2.90;;
1577;SDS011;57623;53.608;10.004;2022-09-09T18:05:02;4.67;;;3.60;;
1577;SDS011;57623;53.608;10.004;2022-09-09T18:07:50;3.70;;;3.40;;
1577;SDS011;57623;53.608;10.004;2022-09-09T18:10:40;3.83;;;3.53;;
1577;SDS011;57623;53.608;10.004;2022-09-09T18:13:32;3.73;;;3.43;;
1577;SDS011;57623;53.608;10.004;2022-09-09T18:16:23;4.13;;;3.77;;
1577;SDS011;57623;53.608;10.004;2022-09-09T18:19:13;4.30;;;4.00;;